createdAt,value
2023-03-08T00:01:54.800Z,99308.91
2023-03-08T00:04:21.309Z,99307.25
2023-03-08T00:06:47.731Z,99301.78
2023-03-08T00:09:14.114Z,99304.28
2023-03-08T00:11:40.438Z,99306.94
2023-03-08T00:14:06.920Z,99315.59
2023-03-08T00:16:33.251Z,99317.25
2023-03-08T00:18:59.716Z,99311.00
2023-03-08T00:21:26.112Z,99303.03
2023-03-08T00:23:56.640Z,99307.34
2023-03-08T00:26:23.161Z,99302.72
2023-03-08T00:28:49.885Z,99313.34
2023-03-08T00:31:16.310Z,99307.88
2023-03-08T00:33:42.697Z,99316.69
2023-03-08T00:36:14.975Z,99311.06
2023-03-08T00:38:41.994Z,99310.06
2023-03-08T00:41:08.771Z,99300.84
2023-03-08T00:43:35.587Z,99300.53
2023-03-08T00:46:02.001Z,99298.59
2023-03-08T00:48:28.541Z,99293.94
2023-03-08T00:50:54.903Z,99297.28
2023-03-08T00:53:21.243Z,99295.31
2023-03-08T00:55:53.184Z,99305.78
2023-03-08T00:58:20.725Z,99311.94
2023-03-08T01:00:48.342Z,99297.66
2023-03-08T01:03:15.549Z,99299.50
2023-03-08T01:05:44.181Z,99299.31
2023-03-08T01:08:12.108Z,99298.34
2023-03-08T01:10:38.714Z,99302.66
2023-03-08T01:13:06.591Z,99299.19
2023-03-08T01:15:37.330Z,99303.66
2023-03-08T01:18:04.636Z,99301.16
2023-03-08T01:20:31.206Z,99302.28
2023-03-08T01:22:57.558Z,99296.31
2023-03-08T01:25:24.041Z,99293.09
2023-03-08T01:27:50.688Z,99284.63
2023-03-08T01:30:17.277Z,99290.25
2023-03-08T01:32:43.885Z,99286.19
2023-03-08T01:35:10.249Z,99282.03
2023-03-08T01:37:36.632Z,99289.28
2023-03-08T01:40:04.823Z,99294.78
2023-03-08T01:42:31.634Z,99296.72
2023-03-08T01:45:04.624Z,99295.06
2023-03-08T01:47:33.247Z,99285.44
2023-03-08T01:50:08.070Z,99287.25
2023-03-08T01:52:46.661Z,99279.16
2023-03-08T01:55:15.802Z,99270.34
2023-03-08T01:57:46.065Z,99272.03
2023-03-08T02:00:19.557Z,99269.22
2023-03-08T02:02:59.600Z,99263.06
2023-03-08T02:05:27.473Z,99260.28
2023-03-08T02:07:53.816Z,99258.47
2023-03-08T02:10:20.865Z,99260.13
2023-03-08T02:12:47.880Z,99252.16
2023-03-08T02:15:17.259Z,99251.19
2023-03-08T02:17:44.562Z,99247.72
2023-03-08T02:20:32.982Z,99250.06
2023-03-08T02:23:18.254Z,99238.44
2023-03-08T02:25:54.636Z,99236.47
2023-03-08T02:28:22.790Z,99233.00
2023-03-08T02:30:49.795Z,99234.78
2023-03-08T02:33:16.923Z,99236.47
2023-03-08T02:35:44.143Z,99236.47
2023-03-08T02:38:12.429Z,99237.31
2023-03-08T02:40:39.854Z,99238.13
2023-03-08T02:43:06.953Z,99239.81
2023-03-08T02:45:34.065Z,99235.19
2023-03-08T02:48:01.366Z,99225.56
2023-03-08T02:50:27.865Z,99228.22
2023-03-08T02:52:54.396Z,99227.38
2023-03-08T02:55:20.818Z,99221.38
2023-03-08T02:57:47.180Z,99215.41
2023-03-08T03:00:14.111Z,99213.56
2023-03-08T03:02:40.468Z,99204.94
2023-03-08T03:05:11.022Z,99205.78
2023-03-08T03:07:39.616Z,99192.66
2023-03-08T03:10:08.150Z,99207.59
2023-03-08T03:12:34.488Z,99202.44
2023-03-08T03:15:02.321Z,99199.78
2023-03-08T03:17:29.213Z,99206.09
2023-03-08T03:19:55.571Z,99204.25
2023-03-08T03:22:21.895Z,99206.91
2023-03-08T03:24:50.924Z,99212.22
2023-03-08T03:27:18.287Z,99215.56
2023-03-08T03:29:45.023Z,99215.56
2023-03-08T03:32:11.963Z,99222.53
2023-03-08T03:34:38.620Z,99221.53
2023-03-08T03:37:05.000Z,99228.66
2023-03-08T03:39:34.570Z,99222.53
2023-03-08T03:42:01.295Z,99226.84
2023-03-08T03:44:30.796Z,99217.91
2023-03-08T03:46:57.354Z,99209.25
2023-03-08T03:49:23.748Z,99203.13
2023-03-08T03:51:50.080Z,99203.13
2023-03-08T03:54:16.473Z,99211.91
2023-03-08T03:56:42.826Z,99215.25
2023-03-08T03:59:09.172Z,99210.78
2023-03-08T04:01:35.522Z,99211.59
2023-03-08T04:04:01.960Z,99212.28
2023-03-08T04:06:30.323Z,99212.97
2023-03-08T04:08:59.703Z,99212.81
2023-03-08T04:11:32.024Z,99216.31
2023-03-08T04:13:58.513Z,99215.47
2023-03-08T04:16:29.328Z,99209.31
2023-03-08T04:18:59.108Z,99213.94
2023-03-08T04:21:25.906Z,99207.00
2023-03-08T04:23:52.958Z,99201.00
2023-03-08T04:26:20.727Z,99202.00
2023-03-08T04:28:47.176Z,99202.94
2023-03-08T04:31:28.590Z,99209.25
2023-03-08T04:33:55.793Z,99200.47
2023-03-08T04:36:22.874Z,99201.31
2023-03-08T04:38:49.628Z,99197.00
2023-03-08T04:41:16.866Z,99187.34
2023-03-08T04:43:50.287Z,99177.41
2023-03-08T04:46:18.811Z,99174.78
2023-03-08T04:48:45.194Z,99168.47
2023-03-08T04:51:14.159Z,99154.22
2023-03-08T04:53:41.545Z,99154.75
2023-03-08T04:56:08.811Z,99152.91
2023-03-08T04:58:36.267Z,99149.31
2023-03-08T05:01:28.854Z,99147.34
2023-03-08T05:03:55.584Z,99151.63
2023-03-08T05:06:24.478Z,99149.13
2023-03-08T05:08:50.897Z,99148.31
2023-03-08T05:11:26.062Z,99144.00
2023-03-08T05:13:57.916Z,99146.66
2023-03-08T05:16:25.316Z,99154.75
2023-03-08T05:18:51.746Z,99145.13
2023-03-08T05:21:20.527Z,99155.75
2023-03-08T05:23:47.219Z,99156.06
2023-03-08T05:26:16.642Z,99139.28
2023-03-08T05:28:43.134Z,99146.72
2023-03-08T05:31:18.211Z,99141.59
2023-03-08T05:33:46.549Z,99130.13
2023-03-08T05:36:14.182Z,99126.63
2023-03-08T05:38:40.946Z,99121.50
2023-03-08T05:41:11.070Z,99127.63
2023-03-08T05:43:37.428Z,99124.31
2023-03-08T05:46:09.200Z,99125.31
2023-03-08T05:48:36.829Z,99122.66
2023-03-08T05:51:12.637Z,99117.34
2023-03-08T05:53:39.720Z,99118.31
2023-03-08T05:56:15.043Z,99108.69
2023-03-08T05:58:43.562Z,99099.91
2023-03-08T06:01:11.521Z,99100.88
2023-03-08T06:03:38.028Z,99095.75
2023-03-08T06:06:04.776Z,99095.75
2023-03-08T06:08:31.191Z,99087.78
2023-03-08T06:10:57.531Z,99091.41
2023-03-08T06:13:23.951Z,99084.28
2023-03-08T06:15:55.074Z,99090.28
2023-03-08T06:18:21.392Z,99076.19
2023-03-08T06:21:01.244Z,99076.88
2023-03-08T06:23:29.358Z,99071.56
2023-03-08T06:25:55.831Z,99060.94
2023-03-08T06:28:23.058Z,99058.13
2023-03-08T06:30:49.935Z,99047.50
2023-03-08T06:33:17.824Z,99046.69
2023-03-08T06:35:44.944Z,99046.88
2023-03-08T06:38:11.370Z,99045.03
2023-03-08T06:40:37.671Z,99041.38
2023-03-08T06:43:04.068Z,99047.69
2023-03-08T06:45:30.424Z,99043.34
2023-03-08T06:47:56.757Z,99041.38
2023-03-08T06:50:23.102Z,99033.44
2023-03-08T06:52:49.555Z,99021.84
2023-03-08T06:55:15.996Z,99022.50
2023-03-08T06:57:42.347Z,99023.19
2023-03-08T07:00:09.808Z,99021.22
2023-03-08T07:02:36.193Z,99013.94
2023-03-08T07:05:02.529Z,99011.94
2023-03-08T07:07:28.900Z,99008.31
2023-03-08T07:09:55.321Z,99011.66
2023-03-08T07:12:21.725Z,99014.94
2023-03-08T07:14:48.047Z,99020.25
2023-03-08T07:17:14.448Z,99023.59
2023-03-08T07:19:40.794Z,99018.16
2023-03-08T07:22:07.109Z,99012.66
2023-03-08T07:24:33.472Z,99016.81
2023-03-08T07:26:59.793Z,99012.06
2023-03-08T07:29:26.184Z,99014.38
2023-03-08T07:31:52.553Z,99015.72
2023-03-08T07:34:18.916Z,99009.13
2023-03-08T07:36:45.254Z,99020.22
2023-03-08T07:39:11.573Z,99010.16
2023-03-08T07:41:38.011Z,99009.66
2023-03-08T07:44:04.576Z,99004.88
2023-03-08T07:46:31.053Z,99003.53
2023-03-08T07:48:57.488Z,99006.56
2023-03-08T07:51:24.021Z,99008.88
2023-03-08T07:53:51.878Z,99010.25
2023-03-08T07:56:18.606Z,99009.91
2023-03-08T07:58:46.101Z,99002.47
2023-03-08T08:01:14.071Z,99002.16
2023-03-08T08:03:40.986Z,99001.81
2023-03-08T08:06:08.229Z,98997.00
2023-03-08T08:08:34.623Z,98995.03
2023-03-08T08:11:01.411Z,99000.84
2023-03-08T08:13:27.848Z,98989.72
2023-03-08T08:15:59.785Z,98985.75
2023-03-08T08:18:26.613Z,98987.09
2023-03-08T08:21:03.529Z,98984.09
2023-03-08T08:23:30.567Z,98977.31
2023-03-08T08:25:57.601Z,98982.28
2023-03-08T08:28:25.627Z,98973.16
2023-03-08T08:30:59.861Z,98972.50
2023-03-08T08:33:28.403Z,98975.66
2023-03-08T08:35:54.980Z,98971.69
2023-03-08T08:38:21.682Z,98966.69
2023-03-08T08:40:48.219Z,98966.84
2023-03-08T08:43:15.013Z,98957.41
2023-03-08T08:45:46.243Z,98950.56
2023-03-08T08:48:13.583Z,98955.38
2023-03-08T08:50:41.423Z,98952.88
2023-03-08T08:53:10.009Z,98949.72
2023-03-08T08:55:36.666Z,98946.53
2023-03-08T08:58:04.388Z,98930.91
2023-03-08T09:00:33.559Z,98937.41
2023-03-08T09:03:05.039Z,98929.53
2023-03-08T09:05:32.604Z,98929.88
2023-03-08T09:08:00.953Z,98934.50
2023-03-08T09:10:29.915Z,98919.69
2023-03-08T09:12:59.056Z,98919.03
2023-03-08T09:15:26.174Z,98914.03
2023-03-08T09:17:52.586Z,98902.69
2023-03-08T09:20:20.512Z,98901.16
2023-03-08T09:22:47.859Z,98895.16
2023-03-08T09:25:14.396Z,98900.78
2023-03-08T09:27:42.552Z,98893.72
2023-03-08T09:30:10.846Z,98891.38
2023-03-08T09:32:37.278Z,98876.50
2023-03-08T09:35:05.149Z,98874.97
2023-03-08T09:37:31.771Z,98871.78
2023-03-08T09:39:58.247Z,98870.44
2023-03-08T09:42:29.494Z,98870.53
2023-03-08T09:45:28.329Z,98877.19
2023-03-08T09:48:07.671Z,98867.81
2023-03-08T09:50:49.702Z,98876.09
2023-03-08T09:53:32.290Z,98862.25
2023-03-08T09:56:04.849Z,98866.22
2023-03-08T09:58:40.864Z,98870.38
2023-03-08T10:01:38.053Z,98862.19
2023-03-08T10:04:12.017Z,98860.34
2023-03-08T10:06:56.756Z,98855.88
2023-03-08T10:09:29.169Z,98858.34
2023-03-08T10:12:13.862Z,98853.19
2023-03-08T10:14:45.065Z,98855.88
2023-03-08T10:17:24.918Z,98852.19
2023-03-08T10:20:08.102Z,98849.34
2023-03-08T10:22:39.066Z,98842.63
2023-03-08T10:25:26.459Z,98824.41
2023-03-08T10:27:55.563Z,98827.38
2023-03-08T10:30:27.086Z,98819.66
2023-03-08T10:32:59.816Z,98820.59
2023-03-08T10:35:37.610Z,98817.84
2023-03-08T10:38:05.780Z,98810.75
2023-03-08T10:40:32.156Z,98807.34
2023-03-08T10:43:03.553Z,98801.91
2023-03-08T10:45:30.076Z,98799.72
2023-03-08T10:48:02.227Z,98800.63
2023-03-08T10:50:31.373Z,98805.41
2023-03-08T10:53:29.339Z,98804.47
2023-03-08T10:55:58.612Z,98802.72
2023-03-08T10:58:30.529Z,98799.31
2023-03-08T11:00:59.794Z,98807.41
2023-03-08T11:03:27.693Z,98790.44
2023-03-08T11:06:09.186Z,98785.16
2023-03-08T11:08:40.132Z,98783.19
2023-03-08T11:11:12.658Z,98788.63
2023-03-08T11:13:44.977Z,98799.56
2023-03-08T11:16:49.167Z,98794.47
2023-03-08T11:19:26.781Z,98793.09
2023-03-08T11:22:20.888Z,98794.56
2023-03-08T11:24:56.023Z,98782.66
2023-03-08T11:27:25.610Z,98792.78
2023-03-08T11:30:22.833Z,98798.38
2023-03-08T11:32:52.362Z,98791.84
2023-03-08T11:35:31.113Z,98781.97
2023-03-08T11:38:14.527Z,98785.47
2023-03-08T11:41:05.867Z,98783.00
2023-03-08T11:44:02.403Z,98784.00
2023-03-08T11:46:53.749Z,98781.72
2023-03-08T11:49:22.959Z,98788.09
2023-03-08T11:52:08.139Z,98777.56
2023-03-08T11:55:05.115Z,98764.22
2023-03-08T11:57:37.399Z,98747.19
2023-03-08T12:00:23.038Z,98745.97
2023-03-08T12:02:50.463Z,98755.44
2023-03-08T12:05:30.396Z,98761.22
2023-03-08T12:08:08.930Z,98759.19
2023-03-08T12:11:03.263Z,98741.94
2023-03-08T12:13:36.476Z,98756.13
2023-03-08T12:16:14.773Z,98740.72
2023-03-08T12:18:48.592Z,98738.88
2023-03-08T12:21:28.510Z,98741.34
2023-03-08T12:24:13.703Z,98724.94
2023-03-08T12:26:48.847Z,98721.88
2023-03-08T12:30:19.686Z,98717.78
2023-03-08T12:32:47.592Z,98722.13
2023-03-08T12:35:23.001Z,98726.25
2023-03-08T12:38:19.911Z,98724.41
2023-03-08T12:40:52.158Z,98723.34
2023-03-08T12:43:21.338Z,98726.25
2023-03-08T12:46:01.603Z,98724.16
2023-03-08T12:48:44.214Z,98729.06
2023-03-08T12:51:14.148Z,98721.81
2023-03-08T12:53:49.586Z,98728.75
2023-03-08T12:56:34.764Z,98729.53
2023-03-08T12:59:11.581Z,98721.28
2023-03-08T13:01:46.647Z,98722.25
2023-03-08T13:04:41.905Z,98709.44
2023-03-08T13:07:37.837Z,98714.50
2023-03-08T13:10:27.699Z,98707.91
2023-03-08T13:13:09.505Z,98695.75
2023-03-08T13:15:37.856Z,98694.31
2023-03-08T13:18:13.971Z,98699.00
2023-03-08T13:20:41.826Z,98699.19
2023-03-08T13:23:23.423Z,98703.69
2023-03-08T13:26:06.381Z,98719.09
2023-03-08T13:28:47.201Z,98721.16
2023-03-08T13:31:23.151Z,98725.19
2023-03-08T13:33:53.915Z,98717.75
2023-03-08T13:36:31.030Z,98716.88
2023-03-08T13:38:59.164Z,98707.75
2023-03-08T13:41:39.637Z,98712.88
2023-03-08T13:44:13.820Z,98708.47
2023-03-08T13:46:42.904Z,98707.19
2023-03-08T13:49:35.294Z,98702.41
2023-03-08T13:52:04.557Z,98692.31
2023-03-08T13:54:34.938Z,98688.38
2023-03-08T13:57:07.505Z,98676.59
2023-03-08T13:59:35.682Z,98670.34
2023-03-08T14:02:02.077Z,98665.78
2023-03-08T14:04:30.242Z,98668.19
2023-03-08T14:06:59.455Z,98662.41
2023-03-08T14:09:26.811Z,98653.28
2023-03-08T14:12:05.360Z,98651.81
2023-03-08T14:14:38.949Z,98654.03
2023-03-08T14:17:05.526Z,98646.16
2023-03-08T14:19:41.915Z,98657.19
2023-03-08T14:22:28.682Z,98645.06
2023-03-08T14:25:04.778Z,98651.59
2023-03-08T14:27:41.421Z,98649.75
2023-03-08T14:30:34.308Z,98655.91
2023-03-08T14:33:18.367Z,98651.22
2023-03-08T14:35:53.495Z,98642.03
2023-03-08T14:38:29.112Z,98630.16
2023-03-08T14:40:56.090Z,98633.63
2023-03-08T14:43:24.769Z,98632.66
2023-03-08T14:45:57.145Z,98625.47
2023-03-08T14:48:37.950Z,98613.50
2023-03-08T14:51:26.269Z,98625.38
2023-03-08T14:53:58.911Z,98624.94
2023-03-08T14:56:25.238Z,98620.97
2023-03-08T14:58:53.700Z,98626.69
2023-03-08T15:01:25.137Z,98627.06
2023-03-08T15:03:51.498Z,98624.13
2023-03-08T15:06:21.855Z,98624.88
2023-03-08T15:08:49.027Z,98622.91
2023-03-08T15:11:15.622Z,98629.16
2023-03-08T15:13:42.251Z,98625.41
2023-03-08T15:16:11.597Z,98635.78
2023-03-08T15:18:39.653Z,98637.56
2023-03-08T15:21:06.569Z,98646.91
2023-03-08T15:23:36.509Z,98646.44
2023-03-08T15:26:06.089Z,98644.97
2023-03-08T15:28:41.581Z,98649.81
2023-03-08T15:31:08.826Z,98645.69
2023-03-08T15:33:35.163Z,98640.91
2023-03-08T15:36:01.570Z,98641.25
2023-03-08T15:38:28.668Z,98634.66
2023-03-08T15:40:55.043Z,98620.69
2023-03-08T15:43:21.409Z,98629.50
2023-03-08T15:45:47.959Z,98628.88
2023-03-08T15:48:17.291Z,98627.19
2023-03-08T15:50:44.758Z,98629.03
2023-03-08T15:53:12.332Z,98632.72
2023-03-08T15:55:39.310Z,98633.91
2023-03-08T15:58:08.294Z,98632.59
2023-03-08T16:00:35.184Z,98622.50
2023-03-08T16:03:01.894Z,98616.72
2023-03-08T16:05:30.016Z,98623.59
2023-03-08T16:07:59.349Z,98625.97
2023-03-08T16:10:27.590Z,98623.81
2023-03-08T16:12:54.176Z,98619.19
2023-03-08T16:15:21.380Z,98620.91
2023-03-08T16:17:47.824Z,98636.56
2023-03-08T16:20:15.295Z,98628.66
2023-03-08T16:22:41.826Z,98626.88
2023-03-08T16:25:09.533Z,98633.06
2023-03-08T16:27:38.098Z,98632.97
2023-03-08T16:30:05.212Z,98638.97
2023-03-08T16:32:31.642Z,98628.88
2023-03-08T16:34:59.193Z,98628.56
2023-03-08T16:37:26.677Z,98638.91
2023-03-08T16:39:54.467Z,98651.88
2023-03-08T16:42:22.104Z,98644.41
2023-03-08T16:44:53.664Z,98642.28
2023-03-08T16:47:21.635Z,98656.94
2023-03-08T16:49:48.125Z,98648.63
2023-03-08T16:52:16.098Z,98656.97
2023-03-08T16:54:42.881Z,98651.97
2023-03-08T16:57:19.109Z,98643.34
2023-03-08T16:59:47.040Z,98641.03
2023-03-08T17:02:19.421Z,98641.22
2023-03-08T17:04:47.607Z,98638.91
2023-03-08T17:07:14.625Z,98633.09
2023-03-08T17:09:41.090Z,98620.97
2023-03-08T17:12:09.353Z,98611.53
2023-03-08T17:14:36.995Z,98614.53
2023-03-08T17:17:04.723Z,98613.22
2023-03-08T17:19:31.211Z,98613.56
2023-03-08T17:21:57.876Z,98611.44
2023-03-08T17:24:28.109Z,98613.56
2023-03-08T17:26:55.134Z,98621.88
2023-03-08T17:29:21.720Z,98625.91
2023-03-08T17:31:48.607Z,98620.94
2023-03-08T17:34:15.973Z,98621.25
2023-03-08T17:36:42.945Z,98619.59
2023-03-08T17:39:09.783Z,98625.25
2023-03-08T17:41:38.416Z,98621.94
2023-03-08T17:44:04.789Z,98622.94
2023-03-08T17:46:31.215Z,98627.59
2023-03-08T17:48:57.581Z,98613.66
2023-03-08T17:51:26.527Z,98618.13
2023-03-08T17:53:54.145Z,98612.34
2023-03-08T17:56:24.924Z,98605.34
2023-03-08T17:58:52.023Z,98614.47
2023-03-08T18:01:24.298Z,98606.88
2023-03-08T18:03:52.155Z,98616.66
2023-03-08T18:06:24.907Z,98618.66
2023-03-08T18:08:51.736Z,98616.00
2023-03-08T18:11:18.077Z,98620.63
2023-03-08T18:13:44.551Z,98615.50
2023-03-08T18:16:10.971Z,98605.06
2023-03-08T18:18:37.427Z,98610.53
2023-03-08T18:21:13.399Z,98609.06
2023-03-08T18:23:42.607Z,98606.56
2023-03-08T18:26:10.387Z,98604.25
2023-03-08T18:28:37.044Z,98607.03
2023-03-08T18:31:12.449Z,98610.53
2023-03-08T18:33:39.248Z,98608.22
2023-03-08T18:36:06.296Z,98602.09
2023-03-08T18:38:33.116Z,98616.50
2023-03-08T18:40:59.622Z,98611.34
2023-03-08T18:43:26.099Z,98615.00
2023-03-08T18:45:54.208Z,98608.88
2023-03-08T18:48:22.053Z,98605.41
2023-03-08T18:50:48.749Z,98616.03
2023-03-08T18:53:15.676Z,98607.41
2023-03-08T18:55:59.923Z,98610.88
2023-03-08T18:58:26.714Z,98607.41
2023-03-08T19:00:54.657Z,98613.53
2023-03-08T19:03:21.100Z,98602.09
2023-03-08T19:05:47.419Z,98600.44
2023-03-08T19:08:13.794Z,98595.13
2023-03-08T19:10:40.237Z,98594.28
2023-03-08T19:13:06.673Z,98600.44
2023-03-08T19:15:39.952Z,98606.56
2023-03-08T19:18:07.148Z,98599.78
2023-03-08T19:20:37.949Z,98598.63
2023-03-08T19:23:04.314Z,98605.91
2023-03-08T19:25:34.920Z,98594.47
2023-03-08T19:28:02.369Z,98591.00
2023-03-08T19:30:28.955Z,98599.94
2023-03-08T19:32:56.486Z,98589.31
2023-03-08T19:35:23.373Z,98606.25
2023-03-08T19:38:01.977Z,98604.41
2023-03-08T19:40:28.617Z,98610.72
2023-03-08T19:42:55.119Z,98612.53
2023-03-08T19:45:21.657Z,98599.44
2023-03-08T19:47:48.066Z,98588.00
2023-03-08T19:50:15.894Z,98580.06
2023-03-08T19:52:42.381Z,98573.91
2023-03-08T19:55:09.289Z,98574.91
2023-03-08T19:57:36.767Z,98569.59
2023-03-08T20:00:06.389Z,98577.56
2023-03-08T20:02:33.169Z,98582.19
2023-03-08T20:05:00.375Z,98578.56
2023-03-08T20:07:27.045Z,98569.13
2023-03-08T20:09:54.528Z,98564.63
2023-03-08T20:12:21.257Z,98562.13
2023-03-08T20:14:48.055Z,98555.19
2023-03-08T20:17:15.065Z,98559.50
2023-03-08T20:19:42.067Z,98565.94
2023-03-08T20:22:08.894Z,98573.91
2023-03-08T20:24:35.651Z,98573.91
2023-03-08T20:27:04.125Z,98579.06
2023-03-08T20:29:30.942Z,98578.91
2023-03-08T20:31:59.182Z,98573.59
2023-03-08T20:34:27.107Z,98579.53
2023-03-08T20:36:53.637Z,98581.03
2023-03-08T20:39:21.499Z,98572.91
2023-03-08T20:41:48.016Z,98565.63
2023-03-08T20:44:14.506Z,98561.97
2023-03-08T20:46:41.023Z,98548.56
2023-03-08T20:49:07.456Z,98539.44
2023-03-08T20:51:33.985Z,98539.25
2023-03-08T20:54:00.530Z,98543.41
2023-03-08T20:56:27.298Z,98548.69
2023-03-08T20:58:57.102Z,98550.19
2023-03-08T21:01:26.896Z,98548.34
2023-03-08T21:03:53.338Z,98551.84
2023-03-08T21:06:31.841Z,98556.97
2023-03-08T21:08:59.354Z,98551.69
2023-03-08T21:11:25.844Z,98557.81
2023-03-08T21:13:53.030Z,98561.94
2023-03-08T21:16:22.185Z,98556.63
2023-03-08T21:18:50.881Z,98550.34
2023-03-08T21:21:24.592Z,98541.53
2023-03-08T21:23:52.730Z,98546.03
2023-03-08T21:26:20.741Z,98541.72
2023-03-08T21:28:47.661Z,98538.06
2023-03-08T21:31:14.176Z,98527.47
2023-03-08T21:33:40.649Z,98532.75
2023-03-08T21:36:07.360Z,98522.97
2023-03-08T21:38:33.810Z,98513.22
2023-03-08T21:41:00.456Z,98502.41
2023-03-08T21:43:26.917Z,98502.41
2023-03-08T21:45:53.301Z,98497.78
2023-03-08T21:48:19.828Z,98486.00
2023-03-08T21:50:46.244Z,98481.34
2023-03-08T21:53:12.719Z,98483.00
2023-03-08T21:55:40.456Z,98489.94
2023-03-08T21:58:07.749Z,98496.91
2023-03-08T22:00:34.501Z,98495.25
2023-03-08T22:03:00.971Z,98502.56
2023-03-08T22:05:27.358Z,98491.13
2023-03-08T22:07:53.709Z,98487.81
2023-03-08T22:10:20.254Z,98494.28
2023-03-08T22:12:47.378Z,98483.84
2023-03-08T22:15:15.588Z,98497.28
2023-03-08T22:17:42.312Z,98494.13
2023-03-08T22:20:10.693Z,98489.66
2023-03-08T22:22:38.099Z,98499.63
2023-03-08T22:25:05.870Z,98494.31
2023-03-08T22:27:32.350Z,98487.34
2023-03-08T22:29:59.100Z,98483.53
2023-03-08T22:32:26.683Z,98483.72
2023-03-08T22:34:53.169Z,98493.31
2023-03-08T22:37:19.604Z,98488.16
2023-03-08T22:39:46.034Z,98490.81
2023-03-08T22:42:12.529Z,98475.09
2023-03-08T22:44:39.001Z,98469.13
2023-03-08T22:47:05.600Z,98463.81
2023-03-08T22:49:31.990Z,98470.28
2023-03-08T22:51:58.419Z,98465.31
2023-03-08T22:54:24.825Z,98466.50
2023-03-08T22:56:51.500Z,98467.81
2023-03-08T22:59:17.942Z,98467.19
2023-03-08T23:01:44.542Z,98472.81
2023-03-08T23:04:12.384Z,98468.50
2023-03-08T23:06:39.098Z,98457.22
2023-03-08T23:09:07.728Z,98451.28
2023-03-08T23:11:35.157Z,98441.66
2023-03-08T23:14:01.948Z,98434.88
2023-03-08T23:16:28.430Z,98429.75
2023-03-08T23:18:55.129Z,98441.34
2023-03-08T23:21:23.269Z,98437.06
2023-03-08T23:23:49.718Z,98431.09
2023-03-08T23:26:19.030Z,98426.78
2023-03-08T23:28:45.408Z,98436.53
2023-03-08T23:31:17.608Z,98451.00
2023-03-08T23:33:44.897Z,98441.38
2023-03-08T23:36:13.373Z,98419.50
2023-03-08T23:38:39.734Z,98417.84
2023-03-08T23:41:08.346Z,98404.59
2023-03-08T23:43:35.941Z,98402.09
2023-03-08T23:46:14.483Z,98416.22
2023-03-08T23:48:41.495Z,98397.81
2023-03-08T23:51:10.550Z,98395.16
2023-03-08T23:53:37.617Z,98394.34
2023-03-08T23:56:04.672Z,98393.50
2023-03-08T23:58:31.396Z,98383.72
